Time;durP1;ratioP1;P1;durP2;ratioP2;P2;SDS_P1;SDS_P2;PMS_P1;PMS_P2;Temp;Humidity;BMP_temperature;BMP_pressure;BME280_temperature;BME280_humidity;BME280_pressure;Samples;Min_cycle;Max_cycle;Signal;HPM_P1;HPM_P2
2022/03/24 00:02:03;;;;;;;0.60;0.60;;;;;;;-0.68;55.06;99411.94;4918633;29;20051;-85
2022/03/24 00:04:30;;;;;;;0.70;0.70;;;;;;;-0.79;55.15;99401.63;4917133;29;20059;-83
2022/03/24 00:06:58;;;;;;;0.80;0.80;;;;;;;-0.87;55.47;99388.34;4917830;29;20110;-84
2022/03/24 00:09:26;;;;;;;0.70;0.70;;;;;;;-0.85;55.96;99394.34;4918830;29;20084;-85
2022/03/24 00:11:55;;;;;;;0.80;0.80;;;;;;;-0.70;55.40;99387.41;4917739;29;20048;-83
2022/03/24 00:14:23;;;;;;;0.70;0.70;;;;;;;-0.62;54.46;99386.59;4876665;29;20469;-85
2022/03/24 00:16:50;;;;;;;0.80;0.80;;;;;;;-0.70;54.84;99382.09;4876536;29;20048;-86
2022/03/24 00:19:19;;;;;;;0.70;0.70;;;;;;;-0.75;54.73;99378.28;4876991;29;20045;-83
2022/03/24 00:21:46;;;;;;;0.77;0.77;;;;;;;-0.81;54.21;99377.13;4876808;29;20056;-85
2022/03/24 00:24:13;;;;;;;0.70;0.70;;;;;;;-0.83;54.22;99375.63;4877430;29;20089;-86
2022/03/24 00:26:41;;;;;;;0.70;0.70;;;;;;;-0.82;54.15;99371.97;4879488;29;20059;-86
2022/03/24 00:29:09;;;;;;;0.77;0.77;;;;;;;-0.82;53.38;99359.56;4878032;29;20077;-85
2022/03/24 00:31:36;;;;;;;0.70;0.70;;;;;;;-0.76;52.93;99360.72;4880533;29;20053;-85
2022/03/24 00:34:03;;;;;;;0.70;0.70;;;;;;;-0.74;52.77;99359.56;4877619;29;20543;-85
2022/03/24 00:36:31;;;;;;;0.80;0.80;;;;;;;-0.55;52.56;99352.31;4877702;29;20052;-84
2022/03/24 00:39:00;;;;;;;0.70;0.70;;;;;;;-0.60;52.42;99349.31;4877022;29;20053;-85
2022/03/24 00:41:28;;;;;;;0.75;0.75;;;;;;;-0.61;52.08;99345.81;4877365;29;20045;-85
2022/03/24 00:43:58;;;;;;;0.73;0.73;;;;;;;-0.57;51.85;99355.13;4878209;29;20084;-85
2022/03/24 00:46:25;;;;;;;0.70;0.70;;;;;;;-0.61;52.48;99353.78;4931193;29;20471;-85
2022/03/24 00:48:53;;;;;;;0.73;0.73;;;;;;;-0.63;52.59;99347.84;4918919;29;20139;-85
2022/03/24 00:51:20;;;;;;;0.80;0.80;;;;;;;-0.67;52.70;99349.16;4935703;29;20111;-84
2022/03/24 00:53:53;;;;;;;0.80;0.80;;;;;;;-0.67;52.38;99344.66;4935305;29;20646;-84
2022/03/24 00:56:21;;;;;;;0.80;0.80;;;;;;;-0.68;51.70;99334.25;4918428;29;20048;-84
2022/03/24 00:58:48;;;;;;;0.82;0.82;;;;;;;-0.59;51.60;99343.03;4935099;29;20055;-85
2022/03/24 01:01:15;;;;;;;0.80;0.80;;;;;;;-0.49;51.23;99327.78;4935362;29;20319;-85
2022/03/24 01:03:43;;;;;;;0.60;0.60;;;;;;;-0.51;50.36;99317.31;4933839;29;20408;-85
2022/03/24 01:06:16;;;;;;;0.80;0.80;;;;;;;-0.47;50.37;99329.28;4935160;29;20091;-85
2022/03/24 01:08:44;;;;;;;0.70;0.70;;;;;;;-0.47;50.44;99321.31;4917965;29;20521;-84
2022/03/24 01:11:12;;;;;;;0.70;0.70;;;;;;;-0.44;50.16;99325.47;4934967;29;20079;-84
2022/03/24 01:13:40;;;;;;;0.77;0.77;;;;;;;-0.42;50.48;99320.81;4934796;29;20142;-84
2022/03/24 01:16:11;;;;;;;0.70;0.70;;;;;;;-0.51;50.52;99316.50;4934672;29;20060;-84
2022/03/24 01:18:40;;;;;;;0.80;0.80;;;;;;;-0.52;50.19;99320.16;4917694;29;20530;-85
2022/03/24 01:21:08;;;;;;;0.70;0.70;;;;;;;-0.51;49.92;99309.38;4918124;29;20047;-84
2022/03/24 01:23:35;;;;;;;0.60;0.60;;;;;;;-0.50;49.68;99308.41;4918119;29;20055;-86
2022/03/24 01:26:05;;;;;;;0.75;0.75;;;;;;;-0.50;49.05;99307.56;4935177;29;20726;-84
2022/03/24 01:28:33;;;;;;;0.75;0.75;;;;;;;-0.46;48.72;99300.94;4918069;29;20044;-85
2022/03/24 01:31:01;;;;;;;0.77;0.77;;;;;;;-0.45;48.68;99306.06;4918166;29;20055;-85
2022/03/24 01:33:28;;;;;;;0.63;0.63;;;;;;;-0.57;48.77;99294.13;4936091;29;20127;-84
2022/03/24 01:35:57;;;;;;;0.80;0.80;;;;;;;-0.57;48.89;99302.09;4922452;29;20059;-85
2022/03/24 01:38:24;;;;;;;0.70;0.70;;;;;;;-0.59;49.02;99304.06;4938917;29;20116;-82
2022/03/24 01:40:51;;;;;;;0.70;0.70;;;;;;;-0.58;48.92;99304.91;4936840;29;20064;-84
2022/03/24 01:43:21;;;;;;;0.70;0.70;;;;;;;-0.61;49.30;99300.75;4918411;29;20530;-86
2022/03/24 01:45:51;;;;;;;0.77;0.77;;;;;;;-0.69;49.50;99293.63;4921379;29;20054;-84
2022/03/24 01:48:19;;;;;;;0.60;0.60;;;;;;;-0.72;50.55;99299.25;4921724;29;20047;-84
2022/03/24 01:50:46;;;;;;;0.60;0.60;;;;;;;-0.74;49.45;99295.13;4938621;29;20066;-85
2022/03/24 01:53:17;;;;;;;0.70;0.70;;;;;;;-0.74;49.97;99301.25;4938250;29;20573;-85
2022/03/24 01:55:47;;;;;;;0.70;0.70;;;;;;;-0.90;51.42;99306.53;4921543;29;20051;-86
2022/03/24 01:58:21;;;;;;;0.60;0.60;;;;;;;-1.22;52.20;99304.66;4938227;29;20052;-83
2022/03/24 02:00:48;;;;;;;0.77;0.77;;;;;;;-1.49;52.71;99301.25;4922021;29;20070;-84
2022/03/24 02:03:16;;;;;;;0.70;0.70;;;;;;;-1.63;53.07;99296.56;4905718;29;20087;-86
2022/03/24 02:05:43;;;;;;;0.80;0.80;;;;;;;-1.72;53.60;99297.50;4937306;29;20047;-85
2022/03/24 02:08:12;;;;;;;0.80;0.80;;;;;;;-1.70;54.30;99298.19;4938174;29;20056;-84
2022/03/24 02:10:40;;;;;;;0.70;0.70;;;;;;;-1.75;54.54;99296.00;4938270;29;20463;-84
2022/03/24 02:13:09;;;;;;;0.60;0.60;;;;;;;-1.72;54.65;99295.72;4921218;29;20537;-85
2022/03/24 02:15:36;;;;;;;0.60;0.60;;;;;;;-1.72;55.22;99286.91;4919440;29;20510;-85
2022/03/24 02:18:03;;;;;;;0.77;0.77;;;;;;;-1.78;55.54;99291.84;4921666;29;20051;-84
2022/03/24 02:20:33;;;;;;;0.60;0.60;;;;;;;-1.87;55.82;99281.41;4922770;29;20089;-83
2022/03/24 02:23:07;;;;;;;0.60;0.60;;;;;;;-1.89;56.19;99278.91;4923285;29;20114;-82
2022/03/24 02:25:38;;;;;;;0.50;0.50;;;;;;;-1.82;56.02;99281.78;4919315;29;20053;-82
2022/03/24 02:28:05;;;;;;;0.70;0.70;;;;;;;-1.86;56.13;99275.13;4904166;29;20115;-85
2022/03/24 02:30:32;;;;;;;0.57;0.57;;;;;;;-1.90;56.41;99277.28;4935578;29;20055;-84
2022/03/24 02:32:59;;;;;;;0.80;0.80;;;;;;;-1.95;56.51;99268.94;4919842;29;20139;-86
2022/03/24 02:35:26;;;;;;;0.73;0.73;;;;;;;-1.93;56.48;99269.63;4935711;29;20099;-90
2022/03/24 02:37:53;;;;;;;0.80;0.80;;;;;;;-1.98;56.62;99262.16;4936273;29;20080;-88
2022/03/24 02:40:21;;;;;;;0.65;0.65;;;;;;;-1.95;56.62;99261.00;4936456;29;20060;-88
2022/03/24 02:42:48;;;;;;;0.80;0.80;;;;;;;-2.00;56.50;99263.31;4920221;29;20239;-86
2022/03/24 02:45:16;;;;;;;0.73;0.73;;;;;;;-2.01;56.33;99259.84;4902409;29;20079;-81
2022/03/24 02:47:44;;;;;;;0.60;0.60;;;;;;;-1.95;56.63;99266.31;4918832;29;20062;-81
2022/03/24 02:50:15;;;;;;;0.60;0.60;;;;;;;-2.00;56.60;99261.50;4934262;29;20048;-82
2022/03/24 02:52:42;;;;;;;0.65;0.65;;;;;;;-1.99;56.49;99257.03;4934221;29;20052;-81
2022/03/24 02:55:09;;;;;;;0.60;0.60;;;;;;;-1.90;56.14;99257.91;4935910;29;20056;-82
2022/03/24 02:57:37;;;;;;;0.60;0.60;;;;;;;-1.95;55.92;99253.06;4936376;29;20571;-82
2022/03/24 03:00:06;;;;;;;0.82;0.82;;;;;;;-1.99;56.14;99254.41;4938020;29;20123;-81
2022/03/24 03:02:34;;;;;;;0.80;0.80;;;;;;;-2.01;55.99;99253.72;4936096;29;20047;-83
2022/03/24 03:05:03;;;;;;;0.60;0.60;;;;;;;-2.07;56.02;99249.91;4935981;29;20111;-80
2022/03/24 03:07:30;;;;;;;0.70;0.70;;;;;;;-2.06;55.86;99254.19;4938310;29;20055;-83
2022/03/24 03:09:59;;;;;;;0.73;0.73;;;;;;;-2.04;55.54;99252.22;4936337;29;20047;-82
2022/03/24 03:12:27;;;;;;;0.47;0.47;;;;;;;-1.96;54.88;99248.78;4919421;29;20115;-80
2022/03/24 03:14:56;;;;;;;0.70;0.70;;;;;;;-2.00;54.40;99243.00;4936075;29;20070;-81
2022/03/24 03:17:23;;;;;;;0.68;0.68;;;;;;;-1.89;54.40;99255.13;4935316;29;20514;-80
2022/03/24 03:19:52;;;;;;;0.50;0.50;;;;;;;-1.87;54.32;99250.50;4936892;29;20170;-82
2022/03/24 03:22:19;;;;;;;0.70;0.70;;;;;;;-1.89;54.34;99251.66;4936602;29;20056;-83
2022/03/24 03:24:46;;;;;;;0.77;0.77;;;;;;;-1.88;54.06;99245.34;4918695;29;20578;-82
2022/03/24 03:27:14;;;;;;;0.88;0.88;;;;;;;-1.80;53.77;99245.38;4918570;29;20639;-83
2022/03/24 03:29:42;;;;;;;0.70;0.70;;;;;;;-1.71;53.31;99243.59;4920004;29;20052;-84
2022/03/24 03:32:10;;;;;;;0.60;0.60;;;;;;;-1.71;53.27;99236.50;4918827;29;20060;-82
2022/03/24 03:34:41;;;;;;;0.63;0.63;;;;;;;-1.63;52.87;99231.22;4920321;29;20052;-84
2022/03/24 03:37:10;;;;;;;0.77;0.77;;;;;;;-1.51;52.63;99237.06;4920960;29;20067;-84
2022/03/24 03:39:37;;;;;;;0.80;0.80;;;;;;;-1.55;52.71;99233.88;4939915;29;20040;-86
2022/03/24 03:42:04;;;;;;;0.57;0.57;;;;;;;-1.57;52.78;99230.59;4938298;29;20043;-83
2022/03/24 03:44:32;;;;;;;0.90;0.90;;;;;;;-1.42;52.54;99233.44;4938796;29;20083;-86
2022/03/24 03:46:59;;;;;;;0.70;0.70;;;;;;;-1.35;52.03;99229.13;4938861;29;20046;-85
2022/03/24 03:49:26;;;;;;;0.60;0.60;;;;;;;-1.23;51.28;99220.91;4923506;29;20908;-83
2022/03/24 03:52:13;;;;;;;0.80;0.80;;;;;;;-0.99;50.03;99225.38;4917386;29;20096;-85
2022/03/24 03:54:40;;;;;;;0.75;0.75;;;;;;;-0.79;49.50;99224.06;4899969;29;20044;-85
2022/03/24 03:57:07;;;;;;;0.60;0.60;;;;;;;-0.64;48.62;99213.63;4900252;29;20135;-82
2022/03/24 03:59:34;;;;;;;0.70;0.70;;;;;;;-0.45;47.86;99210.63;4915950;29;20052;-84
2022/03/24 04:02:02;;;;;;;0.68;0.68;;;;;;;-0.24;47.69;99222.50;4917756;29;20482;-85
2022/03/24 04:04:29;;;;;;;0.70;0.70;;;;;;;-0.19;47.43;99214.88;4917841;29;20044;-84
2022/03/24 04:06:56;;;;;;;0.80;0.80;;;;;;;-0.15;47.53;99205.56;4916866;29;20547;-85
2022/03/24 04:09:23;;;;;;;0.80;0.80;;;;;;;-0.05;46.86;99202.69;4917809;29;20059;-85
2022/03/24 04:11:51;;;;;;;0.65;0.65;;;;;;;0.16;46.27;99208.28;4920139;29;20051;-84
2022/03/24 04:14:18;;;;;;;0.70;0.70;;;;;;;0.23;46.55;99197.81;4917178;29;20147;-85
2022/03/24 04:16:46;;;;;;;0.70;0.70;;;;;;;0.31;46.37;99203.06;4917235;29;20103;-83
2022/03/24 04:19:14;;;;;;;0.80;0.80;;;;;;;0.33;46.54;99203.72;4917002;29;20464;-84
2022/03/24 04:21:41;;;;;;;0.90;0.90;;;;;;;0.34;46.53;99205.38;4916376;29;20197;-84
2022/03/24 04:24:08;;;;;;;0.70;0.70;;;;;;;0.40;46.33;99199.34;4917444;29;20052;-85
2022/03/24 04:26:36;;;;;;;0.60;0.60;;;;;;;0.55;45.93;99201.28;4918188;29;20045;-85
2022/03/24 04:29:03;;;;;;;0.80;0.80;;;;;;;0.75;45.81;99199.81;4917847;29;20503;-85
2022/03/24 04:31:31;;;;;;;0.70;0.70;;;;;;;0.85;45.86;99203.06;4921819;29;20052;-86
2022/03/24 04:33:58;;;;;;;0.80;0.80;;;;;;;0.89;45.78;99195.56;4928316;29;20048;-86
2022/03/24 04:36:26;;;;;;;0.80;0.80;;;;;;;0.89;46.09;99186.75;4910704;29;20490;-86
2022/03/24 04:38:54;;;;;;;0.73;0.73;;;;;;;0.97;45.84;99189.38;4924808;29;20127;-85
2022/03/24 04:41:23;;;;;;;0.80;0.80;;;;;;;1.04;45.81;99195.63;4916925;29;20567;-85
2022/03/24 04:43:51;;;;;;;0.80;0.80;;;;;;;1.12;45.64;99184.94;4915817;29;20048;-86
2022/03/24 04:46:18;;;;;;;0.70;0.70;;;;;;;1.22;45.90;99193.47;4916549;29;20056;-85
2022/03/24 04:48:48;;;;;;;0.80;0.80;;;;;;;1.24;45.84;99195.94;4917082;29;20230;-86
2022/03/24 04:51:17;;;;;;;0.70;0.70;;;;;;;1.25;45.70;99182.47;4862596;29;20135;-85
2022/03/24 04:53:44;;;;;;;0.80;0.80;;;;;;;1.37;45.66;99190.00;4862111;29;20082;-85
2022/03/24 04:56:11;;;;;;;0.70;0.70;;;;;;;1.46;45.19;99194.25;4879398;29;20057;-85
2022/03/24 04:58:39;;;;;;;0.70;0.70;;;;;;;1.55;45.38;99184.38;4878556;29;20057;-84
2022/03/24 05:01:06;;;;;;;0.70;0.70;;;;;;;1.65;45.36;99204.38;4865933;29;20048;-84
2022/03/24 05:03:33;;;;;;;0.80;0.80;;;;;;;1.73;45.18;99195.47;4882793;29;20089;-84
2022/03/24 05:06:00;;;;;;;0.70;0.70;;;;;;;1.85;44.95;99191.34;4882635;29;20052;-85
2022/03/24 05:08:27;;;;;;;0.80;0.80;;;;;;;2.03;44.25;99201.63;4878874;29;20060;-85
2022/03/24 05:10:54;;;;;;;0.80;0.80;;;;;;;2.09;44.11;99189.41;4878320;29;20079;-85
2022/03/24 05:13:21;;;;;;;0.80;0.80;;;;;;;2.14;44.08;99198.50;4883637;29;20114;-83
2022/03/24 05:15:49;;;;;;;0.68;0.68;;;;;;;2.21;43.93;99192.44;4879963;29;20061;-84
2022/03/24 05:18:16;;;;;;;0.70;0.70;;;;;;;2.37;43.76;99194.88;4886118;29;20048;-82
2022/03/24 05:20:43;;;;;;;0.80;0.80;;;;;;;2.54;43.44;99193.66;4873069;29;20041;-85
2022/03/24 05:23:11;;;;;;;0.80;0.80;;;;;;;2.66;42.78;99171.81;4902801;29;20054;-84
2022/03/24 05:25:38;;;;;;;0.80;0.80;;;;;;;2.96;42.72;99197.38;4909351;29;20059;-85
2022/03/24 05:28:05;;;;;;;0.70;0.70;;;;;;;3.16;42.33;99196.72;4944078;29;20057;-84
2022/03/24 05:30:33;;;;;;;0.60;0.60;;;;;;;3.33;41.91;99183.94;4941892;29;20055;-83
2022/03/24 05:33:00;;;;;;;0.73;0.73;;;;;;;3.48;41.31;99184.66;4947467;29;20059;-84
2022/03/24 05:35:27;;;;;;;0.70;0.70;;;;;;;3.67;41.24;99193.81;4927387;29;20126;-84
2022/03/24 05:37:54;;;;;;;0.70;0.70;;;;;;;3.79;41.08;99186.09;4922614;29;20048;-86
2022/03/24 05:40:22;;;;;;;0.70;0.70;;;;;;;3.88;40.99;99190.25;4921355;29;20074;-84
2022/03/24 05:42:49;;;;;;;0.80;0.80;;;;;;;3.99;40.52;99191.56;4906480;29;20526;-85
2022/03/24 05:45:17;;;;;;;0.70;0.70;;;;;;;4.04;40.28;99179.25;4914052;29;20551;-84
2022/03/24 05:47:44;;;;;;;0.60;0.60;;;;;;;4.21;39.90;99198.44;4934753;29;20387;-84
2022/03/24 05:50:17;;;;;;;0.65;0.65;;;;;;;4.33;39.67;99186.19;4926162;29;20050;-83
2022/03/24 05:53:06;;;;;;;0.68;0.68;;;;;;;4.48;39.15;99193.19;4926328;29;20048;-85
2022/03/24 05:55:36;;;;;;;0.73;0.73;;;;;;;4.65;39.25;99191.81;4943605;29;20062;-85
2022/03/24 05:58:04;;;;;;;0.60;0.60;;;;;;;4.81;38.76;99190.63;4942454;29;20047;-84
2022/03/24 06:00:31;;;;;;;0.77;0.77;;;;;;;4.96;38.40;99191.28;4926681;29;20048;-84
2022/03/24 06:02:59;;;;;;;0.70;0.70;;;;;;;5.10;38.46;99194.78;4903066;29;20072;-85
2022/03/24 06:05:26;;;;;;;0.70;0.70;;;;;;;5.18;38.16;99191.91;4918287;29;20052;-84
2022/03/24 06:07:55;;;;;;;0.70;0.70;;;;;;;5.28;38.02;99196.03;4935074;29;20076;-86
2022/03/24 06:10:22;;;;;;;0.70;0.70;;;;;;;5.42;37.71;99195.03;4934260;29;20151;-86
2022/03/24 06:12:51;;;;;;;0.70;0.70;;;;;;;5.52;37.32;99197.25;4929885;29;20537;-85
2022/03/24 06:15:19;;;;;;;0.70;0.70;;;;;;;5.62;36.95;99193.16;4931869;29;20052;-86
2022/03/24 06:17:47;;;;;;;0.60;0.60;;;;;;;5.76;36.72;99203.84;4576171;29;10000175;-85
2022/03/24 06:20:14;;;;;;;0.70;0.70;;;;;;;5.88;36.71;99204.84;4928461;29;20055;-87
2022/03/24 06:22:47;;;;;;;0.70;0.70;;;;;;;6.00;36.55;99205.03;4899003;29;20061;-86
2022/03/24 06:25:14;;;;;;;0.70;0.70;;;;;;;6.14;36.10;99200.50;4920982;29;20159;-85
2022/03/24 06:27:51;;;;;;;0.70;0.70;;;;;;;6.28;36.08;99202.09;4914537;29;20052;-86
2022/03/24 06:30:37;;;;;;;0.70;0.70;;;;;;;6.24;35.96;99190.16;4902983;29;20422;-86
2022/03/24 06:33:06;;;;;;;0.70;0.70;;;;;;;6.39;36.01;99188.03;4937839;29;20123;-90
2022/03/24 06:35:34;;;;;;;0.60;0.60;;;;;;;6.54;35.74;99194.97;4936238;29;20079;-87
2022/03/24 06:38:02;;;;;;;0.70;0.70;;;;;;;6.67;35.55;99211.00;4934052;29;20474;-91
2022/03/24 06:40:29;;;;;;;0.60;0.60;;;;;;;6.71;35.04;99206.88;4900424;29;20052;-86
2022/03/24 06:42:56;;;;;;;0.70;0.70;;;;;;;6.76;34.95;99207.03;4905736;29;20074;-88
2022/03/24 06:45:25;;;;;;;0.60;0.60;;;;;;;6.74;34.84;99193.00;4885153;29;20044;-87
2022/03/24 06:47:53;;;;;;;0.70;0.70;;;;;;;6.76;35.25;99200.84;4937782;29;20052;-87
2022/03/24 06:50:20;;;;;;;0.68;0.68;;;;;;;6.81;35.13;99207.22;4904097;29;20050;-86
2022/03/24 06:52:52;;;;;;;0.60;0.60;;;;;;;6.78;34.88;99194.22;4925865;29;20427;-88
2022/03/24 06:55:20;;;;;;;0.60;0.60;;;;;;;6.90;34.92;99210.47;4946314;29;20048;-86
2022/03/24 06:57:47;;;;;;;0.60;0.60;;;;;;;6.94;35.29;99209.00;4951425;29;20047;-85
2022/03/24 07:00:15;;;;;;;0.60;0.60;;;;;;;6.99;34.97;99213.69;4951774;29;20051;-88
2022/03/24 07:02:44;;;;;;;0.60;0.60;;;;;;;7.06;34.59;99215.28;4908351;29;20083;-85
2022/03/24 07:05:12;;;;;;;0.65;0.65;;;;;;;7.12;34.84;99216.31;4940232;29;20106;-86
2022/03/24 07:07:40;;;;;;;0.60;0.60;;;;;;;7.16;34.83;99204.09;4908476;29;20044;-86
2022/03/24 07:10:08;;;;;;;0.60;0.60;;;;;;;7.23;34.79;99215.59;4925961;29;20108;-86
2022/03/24 07:12:37;;;;;;;0.60;0.60;;;;;;;7.31;34.74;99212.66;4936800;29;20087;-87
2022/03/24 07:15:07;;;;;;;0.60;0.60;;;;;;;7.42;34.24;99207.59;4900908;29;20315;-85
2022/03/24 07:17:36;;;;;;;0.60;0.60;;;;;;;7.48;33.86;99202.19;4937683;29;20058;-88
2022/03/24 07:20:05;;;;;;;0.63;0.63;;;;;;;7.67;33.83;99211.13;4888813;29;20052;-89
2022/03/24 07:22:34;;;;;;;0.60;0.60;;;;;;;7.81;33.83;99212.63;4940616;29;20075;-90
2022/03/24 07:25:07;;;;;;;0.60;0.60;;;;;;;7.94;33.54;99216.25;4906486;29;20055;-85
2022/03/24 07:27:35;;;;;;;0.65;0.65;;;;;;;7.94;33.16;99202.81;4919373;29;20044;-85
2022/03/24 07:30:04;;;;;;;0.63;0.63;;;;;;;8.04;32.46;99217.38;4919536;29;20661;-88
2022/03/24 07:32:32;;;;;;;0.70;0.70;;;;;;;8.16;32.92;99216.66;4930139;29;20060;-89
2022/03/24 07:34:59;;;;;;;0.60;0.60;;;;;;;8.27;32.61;99215.06;4910902;29;20140;-86
2022/03/24 07:37:28;;;;;;;0.70;0.70;;;;;;;8.42;32.24;99221.75;4915031;29;20048;-87
2022/03/24 07:39:56;;;;;;;0.60;0.60;;;;;;;8.40;32.17;99196.13;4936431;29;20074;-88
2022/03/24 07:42:23;;;;;;;0.60;0.60;;;;;;;8.66;32.06;99217.31;4934756;29;20071;-86
2022/03/24 07:44:50;;;;;;;0.60;0.60;;;;;;;8.82;31.32;99210.47;4933367;29;20095;-85
2022/03/24 07:47:17;;;;;;;0.60;0.60;;;;;;;9.03;31.52;99209.13;4898186;29;20051;-85
2022/03/24 07:49:46;;;;;;;0.60;0.60;;;;;;;9.11;31.34;99200.75;4912401;29;20052;-85
2022/03/24 07:52:14;;;;;;;0.70;0.70;;;;;;;9.23;30.84;99200.75;4928333;29;20048;-84
2022/03/24 07:54:50;;;;;;;0.70;0.70;;;;;;;9.28;30.55;99189.31;4933510;29;20079;-83
2022/03/24 07:57:18;;;;;;;0.70;0.70;;;;;;;9.42;30.39;99206.91;4915759;29;20051;-84
2022/03/24 07:59:45;;;;;;;0.68;0.68;;;;;;;9.63;30.53;99212.78;4905911;29;20079;-83
2022/03/24 08:02:12;;;;;;;0.70;0.70;;;;;;;9.78;30.25;99194.28;4925982;29;20150;-83
2022/03/24 08:04:40;;;;;;;0.70;0.70;;;;;;;10.20;30.10;99211.13;4911995;29;20118;-85
2022/03/24 08:07:07;;;;;;;0.70;0.70;;;;;;;10.34;29.40;99209.00;4913811;29;20090;-84
2022/03/24 08:09:35;;;;;;;0.70;0.70;;;;;;;10.57;28.77;99204.63;4914296;29;20135;-84
2022/03/24 08:12:10;;;;;;;0.77;0.77;;;;;;;10.77;28.58;99215.00;4936023;29;20059;-82
2022/03/24 08:14:37;;;;;;;0.70;0.70;;;;;;;11.10;28.38;99211.56;4893129;29;20107;-85
2022/03/24 08:17:05;;;;;;;0.70;0.70;;;;;;;11.43;27.69;99212.66;4934451;29;20079;-84
2022/03/24 08:19:32;;;;;;;0.70;0.70;;;;;;;11.53;27.14;99204.72;4927530;29;20510;-87
2022/03/24 08:22:00;;;;;;;0.70;0.70;;;;;;;11.70;26.81;99208.25;4933862;29;20102;-85
2022/03/24 08:24:27;;;;;;;0.70;0.70;;;;;;;11.88;26.32;99211.78;4924408;29;20102;-84
2022/03/24 08:26:54;;;;;;;0.70;0.70;;;;;;;12.38;25.98;99204.59;4931791;29;20115;-84
2022/03/24 08:29:21;;;;;;;0.70;0.70;;;;;;;12.81;25.25;99206.47;4932269;29;20115;-86
2022/03/24 08:31:49;;;;;;;0.70;0.70;;;;;;;13.08;24.52;99198.34;4903677;29;20060;-84
2022/03/24 08:34:17;;;;;;;0.70;0.70;;;;;;;13.31;24.27;99209.97;4933846;29;20067;-84
2022/03/24 08:36:46;;;;;;;0.70;0.70;;;;;;;13.55;24.29;99199.63;4912319;29;20056;-83
2022/03/24 08:39:13;;;;;;;0.73;0.73;;;;;;;13.73;23.43;99199.22;4902669;29;20052;-83
2022/03/24 08:41:40;;;;;;;0.70;0.70;;;;;;;13.75;23.29;99194.34;4902233;29;20104;-85
2022/03/24 08:44:08;;;;;;;0.70;0.70;;;;;;;13.99;23.78;99202.09;4890644;29;20056;-86
2022/03/24 08:46:37;;;;;;;0.70;0.70;;;;;;;14.28;23.61;99200.63;4878343;29;20084;-86
2022/03/24 08:49:04;;;;;;;0.70;0.70;;;;;;;14.37;23.59;99197.41;4872353;29;20480;-83
2022/03/24 08:51:31;;;;;;;0.70;0.70;;;;;;;14.39;23.36;99195.25;4875321;29;20497;-84
2022/03/24 08:53:58;;;;;;;0.70;0.70;;;;;;;14.73;22.69;99198.38;4876746;29;20054;-87
2022/03/24 08:56:25;;;;;;;0.70;0.70;;;;;;;14.90;22.58;99190.81;4869289;29;20056;-84
2022/03/24 08:58:52;;;;;;;0.70;0.70;;;;;;;14.59;20.23;99195.38;4898076;29;20125;-88
2022/03/24 09:01:22;;;;;;;0.70;0.70;;;;;;;14.91;21.72;99195.19;4882401;29;20053;-89
2022/03/24 09:03:51;;;;;;;0.70;0.70;;;;;;;14.97;21.64;99165.31;4865671;29;20052;-89
2022/03/24 09:06:21;;;;;;;0.60;0.60;;;;;;;15.13;21.43;99191.41;4862789;29;20188;-90
2022/03/24 09:08:51;;;;;;;0.70;0.70;;;;;;;15.26;21.27;99187.34;4916364;29;20052;-90
2022/03/24 09:11:18;;;;;;;0.70;0.70;;;;;;;15.80;21.02;99184.94;4902989;29;20084;-92
2022/03/24 09:13:46;;;;;;;0.68;0.68;;;;;;;16.17;20.92;99191.09;4940715;29;20077;-89
2022/03/24 09:16:27;;;;;;;0.70;0.70;;;;;;;15.89;21.24;99189.81;4913339;29;20527;-91
2022/03/24 09:18:55;;;;;;;0.70;0.70;;;;;;;16.00;21.13;99188.69;4888824;29;20048;-90
2022/03/24 09:21:23;;;;;;;0.70;0.70;;;;;;;16.44;20.75;99186.09;4885637;29;20059;-88
2022/03/24 09:23:51;;;;;;;0.60;0.60;;;;;;;16.60;20.59;99194.22;4871654;29;20092;-87
2022/03/24 09:26:19;;;;;;;0.60;0.60;;;;;;;16.77;20.25;99194.69;4883262;29;20052;-90
2022/03/24 09:28:59;;;;;;;0.70;0.70;;;;;;;17.05;20.22;99198.63;4903323;29;20078;-90
2022/03/24 09:31:33;;;;;;;0.60;0.60;;;;;;;17.37;19.99;99180.97;4887216;29;20416;-91
2022/03/24 09:34:08;;;;;;;0.60;0.60;;;;;;;17.62;19.30;99188.09;4916638;29;20060;-91
2022/03/24 09:36:45;;;;;;;0.70;0.70;;;;;;;17.50;19.25;99179.50;4904540;29;20519;-92
2022/03/24 09:39:15;;;;;;;0.60;0.60;;;;;;;17.71;18.92;99196.50;4909504;29;20084;-91
2022/03/24 09:41:47;;;;;;;0.70;0.70;;;;;;;18.11;18.63;99189.84;4886960;29;20055;-88
2022/03/24 09:44:14;;;;;;;0.70;0.70;;;;;;;18.33;18.26;99185.78;4915558;29;20533;-88
2022/03/24 09:46:43;;;;;;;0.60;0.60;;;;;;;17.95;18.75;99180.19;4916777;29;20059;-87
2022/03/24 09:49:15;;;;;;;0.60;0.60;;;;;;;17.50;19.31;99187.69;4917279;29;20428;-88
2022/03/24 09:51:44;;;;;;;0.70;0.70;;;;;;;17.69;18.85;99177.66;4916705;29;20388;-89
2022/03/24 09:54:12;;;;;;;0.70;0.70;;;;;;;17.80;18.46;99177.59;4918346;29;20056;-88
2022/03/24 09:56:39;;;;;;;0.73;0.73;;;;;;;17.42;18.02;99166.44;4902335;29;20085;-87
2022/03/24 09:59:09;;;;;;;0.70;0.70;;;;;;;17.52;18.67;99180.84;4926813;29;20400;-87
2022/03/24 10:01:39;;;;;;;0.70;0.70;;;;;;;17.83;18.37;99172.41;4919835;29;20146;-86
2022/03/24 10:04:14;;;;;;;0.60;0.60;;;;;;;18.02;18.15;99177.13;4920527;29;20055;-87
2022/03/24 10:06:59;;;;;;;0.70;0.70;;;;;;;18.30;18.11;99173.50;4939338;29;20059;-83
2022/03/24 10:09:43;;;;;;;0.70;0.70;;;;;;;18.77;18.28;99174.59;4940010;29;20526;-89
2022/03/24 10:12:33;;;;;;;0.60;0.60;;;;;;;18.79;17.79;99160.66;4923000;29;20498;-89
2022/03/24 10:15:04;;;;;;;0.63;0.63;;;;;;;19.09;17.77;99183.16;4911615;29;20047;-90
2022/03/24 10:17:35;;;;;;;0.70;0.70;;;;;;;19.48;17.41;99178.16;4942355;29;20426;-91
2022/03/24 10:20:14;;;;;;;0.65;0.65;;;;;;;19.72;17.29;99185.47;4935934;29;20052;-90
2022/03/24 10:23:13;;;;;;;0.70;0.70;;;;;;;19.53;16.96;99190.16;4938690;29;20064;-92
2022/03/24 10:26:18;;;;;;;0.63;0.63;;;;;;;20.38;16.73;99188.06;4850281;29;20481;-89
2022/03/24 10:28:58;;;;;;;0.60;0.60;;;;;;;20.09;16.46;99183.72;4862166;29;20172;-88
2022/03/24 10:31:35;;;;;;;0.68;0.68;;;;;;;19.60;16.88;99191.41;4852921;29;20050;-91
2022/03/24 10:34:02;;;;;;;0.60;0.60;;;;;;;19.47;17.07;99182.03;4795420;29;20139;-87
2022/03/24 10:36:30;;;;;;;0.60;0.60;;;;;;;19.47;16.77;99187.50;4841404;29;20513;-89
2022/03/24 10:39:08;;;;;;;0.60;0.60;;;;;;;19.88;16.47;99180.53;4838932;29;20061;-90
2022/03/24 10:41:37;;;;;;;0.60;0.60;;;;;;;19.82;16.69;99188.00;4848899;29;20046;-87
2022/03/24 10:44:09;;;;;;;0.60;0.60;;;;;;;20.12;16.49;99180.34;4819097;29;20049;-91
2022/03/24 10:46:42;;;;;;;0.60;0.60;;;;;;;20.11;16.42;99178.75;4791378;29;20081;-88
2022/03/24 10:49:21;;;;;;;0.70;0.70;;;;;;;20.50;15.93;99185.63;4834681;29;20153;-87
2022/03/24 10:51:55;;;;;;;0.60;0.60;;;;;;;20.49;16.46;99176.59;4830426;29;20144;-89
2022/03/24 10:54:39;;;;;;;0.60;0.60;;;;;;;20.57;15.88;99180.59;4841283;29;20057;-85
2022/03/24 10:57:13;;;;;;;0.60;0.60;;;;;;;20.61;15.67;99178.03;4810868;29;20114;-90
2022/03/24 10:59:46;;;;;;;0.60;0.60;;;;;;;20.45;15.88;99178.31;4826234;29;20571;-88
2022/03/24 11:02:15;;;;;;;0.60;0.60;;;;;;;20.89;15.87;99184.28;4857061;29;20168;-89
2022/03/24 11:04:43;;;;;;;0.60;0.60;;;;;;;21.36;15.55;99188.41;4844549;29;20060;-89
2022/03/24 11:07:10;;;;;;;0.60;0.60;;;;;;;21.20;15.14;99166.00;4858763;29;20046;-87
2022/03/24 11:09:45;;;;;;;0.60;0.60;;;;;;;21.30;15.23;99181.41;4842198;29;20148;-87
2022/03/24 11:12:36;;;;;;;0.60;0.60;;;;;;;21.40;14.94;99186.69;4849269;29;20053;-88
2022/03/24 11:15:07;;;;;;;0.50;0.50;;;;;;;21.25;14.97;99176.06;4827264;29;20065;-87
2022/03/24 11:17:38;;;;;;;0.50;0.50;;;;;;;21.76;14.39;99187.75;4905861;29;20067;-86
2022/03/24 11:20:15;;;;;;;0.60;0.60;;;;;;;21.91;14.33;99184.59;4923530;29;20060;-86
2022/03/24 11:22:51;;;;;;;0.50;0.50;;;;;;;21.79;14.48;99182.41;4909900;29;20056;-87
2022/03/24 11:25:19;;;;;;;0.60;0.60;;;;;;;21.87;14.30;99167.09;4935185;29;20087;-86
2022/03/24 11:27:47;;;;;;;0.52;0.52;;;;;;;21.84;14.28;99179.53;4903692;29;20052;-87
2022/03/24 11:30:15;;;;;;;0.50;0.50;;;;;;;21.84;14.71;99189.72;4935909;29;20380;-87
2022/03/24 11:32:44;;;;;;;0.57;0.57;;;;;;;22.46;13.73;99188.91;4904911;29;20055;-87
2022/03/24 11:35:13;;;;;;;0.60;0.60;;;;;;;22.73;14.00;99176.81;4921064;29;20051;-87
2022/03/24 11:37:41;;;;;;;0.50;0.50;;;;;;;22.81;13.84;99156.75;4920592;29;20051;-87
2022/03/24 11:40:11;;;;;;;0.52;0.52;;;;;;;22.50;14.09;99174.16;4897530;29;20063;-88
2022/03/24 11:42:51;;;;;;;0.60;0.60;;;;;;;22.06;14.46;99173.19;4913742;29;20111;-87
2022/03/24 11:45:39;;;;;;;0.60;0.60;;;;;;;21.64;14.85;99177.31;4918830;29;20486;-86
2022/03/24 11:48:08;;;;;;;0.60;0.60;;;;;;;21.68;14.64;99175.56;4931822;29;20051;-88